Aviation WX

[Source: ADDS]
METAR
KFKL 251222Z AUTO 16008KT 9SM OVC003 16/15 A3016 RMK AO2 =
KFKL 251126Z 2512/2612 16012G22KT P6SM OVC005 WS020/22035KT FM251400 17010G20KT P6SM VCSH OVC008 FM251700 18010G20KT P6SM VCSH OVC010 FM260300 18012KT P6SM OVC008 FM260800 19012KT P6SM -SHRA OVC005
TAF
KFKL 251126Z 2512/2612 16012G22KT P6SM OVC005 WS020/22035KT FM251400 17010G20KT P6SM VCSH OVC008 FM251700 18010G20KT P6SM VCSH OVC010 FM260300 18012KT P6SM OVC008 FM260800 19012KT P6SM -SHRA OVC005 =

Clarion Airport T-Shirts

small